sensor_id;sensor_type;location;lat;lon;timestamp;P1;durP1;ratioP1;P2;durP2;ratioP2
55455;SDS011;63021;52.836;6.376;2023-02-15T00:01:41;24.30;;;14.30;;
55455;SDS011;63021;52.836;6.376;2023-02-15T00:04:08;19.50;;;14.45;;
55455;SDS011;63021;52.836;6.376;2023-02-15T00:06:34;20.00;;;14.23;;
55455;SDS011;63021;52.836;6.376;2023-02-15T00:09:00;22.40;;;14.07;;
55455;SDS011;63021;52.836;6.376;2023-02-15T00:11:26;21.52;;;14.68;;
55455;SDS011;63021;52.836;6.376;2023-02-15T00:16:38;16.83;;;13.63;;
55455;SDS011;63021;52.836;6.376;2023-02-15T00:19:05;17.30;;;13.95;;
55455;SDS011;63021;52.836;6.376;2023-02-15T00:21:31;19.77;;;14.13;;
55455;SDS011;63021;52.836;6.376;2023-02-15T00:23:58;18.02;;;14.65;;
55455;SDS011;63021;52.836;6.376;2023-02-15T00:26:25;15.50;;;13.63;;
55455;SDS011;63021;52.836;6.376;2023-02-15T00:28:51;17.55;;;14.38;;
55455;SDS011;63021;52.836;6.376;2023-02-15T00:31:17;19.88;;;14.85;;
55455;SDS011;63021;52.836;6.376;2023-02-15T00:33:43;23.65;;;15.07;;
55455;SDS011;63021;52.836;6.376;2023-02-15T00:36:11;23.35;;;14.02;;
55455;SDS011;63021;52.836;6.376;2023-02-15T00:38:37;18.48;;;13.70;;
55455;SDS011;63021;52.836;6.376;2023-02-15T00:41:03;19.77;;;13.73;;
55455;SDS011;63021;52.836;6.376;2023-02-15T00:43:31;21.25;;;14.15;;
55455;SDS011;63021;52.836;6.376;2023-02-15T00:45:58;17.83;;;13.70;;
55455;SDS011;63021;52.836;6.376;2023-02-15T00:48:24;18.45;;;13.40;;
55455;SDS011;63021;52.836;6.376;2023-02-15T00:50:51;16.42;;;13.68;;
55455;SDS011;63021;52.836;6.376;2023-02-15T00:53:19;17.42;;;12.98;;
55455;SDS011;63021;52.836;6.376;2023-02-15T00:55:45;23.67;;;14.48;;
55455;SDS011;63021;52.836;6.376;2023-02-15T00:58:11;21.23;;;14.40;;
55455;SDS011;63021;52.836;6.376;2023-02-15T01:00:37;21.52;;;14.90;;
55455;SDS011;63021;52.836;6.376;2023-02-15T01:03:04;17.20;;;13.60;;
55455;SDS011;63021;52.836;6.376;2023-02-15T01:05:30;20.70;;;13.68;;
55455;SDS011;63021;52.836;6.376;2023-02-15T01:07:57;18.13;;;12.75;;
55455;SDS011;63021;52.836;6.376;2023-02-15T01:10:23;19.75;;;13.48;;
55455;SDS011;63021;52.836;6.376;2023-02-15T01:12:50;19.33;;;13.65;;
55455;SDS011;63021;52.836;6.376;2023-02-15T01:15:16;18.83;;;14.73;;
55455;SDS011;63021;52.836;6.376;2023-02-15T01:17:41;19.55;;;14.65;;
55455;SDS011;63021;52.836;6.376;2023-02-15T01:20:10;23.35;;;13.85;;
55455;SDS011;63021;52.836;6.376;2023-02-15T01:22:36;25.35;;;15.07;;
55455;SDS011;63021;52.836;6.376;2023-02-15T01:25:02;24.77;;;15.23;;
55455;SDS011;63021;52.836;6.376;2023-02-15T01:27:28;26.42;;;14.95;;
55455;SDS011;63021;52.836;6.376;2023-02-15T01:29:55;27.70;;;16.05;;
55455;SDS011;63021;52.836;6.376;2023-02-15T01:32:21;29.40;;;17.52;;
55455;SDS011;63021;52.836;6.376;2023-02-15T01:34:46;28.35;;;17.77;;
55455;SDS011;63021;52.836;6.376;2023-02-15T01:37:11;27.67;;;16.55;;
55455;SDS011;63021;52.836;6.376;2023-02-15T01:39:37;31.92;;;17.05;;
55455;SDS011;63021;52.836;6.376;2023-02-15T01:42:02;26.23;;;16.67;;
55455;SDS011;63021;52.836;6.376;2023-02-15T01:44:45;31.10;;;17.70;;
55455;SDS011;63021;52.836;6.376;2023-02-15T01:47:28;34.75;;;17.65;;
55455;SDS011;63021;52.836;6.376;2023-02-15T01:50:00;31.65;;;18.83;;
55455;SDS011;63021;52.836;6.376;2023-02-15T01:52:32;27.60;;;17.25;;
55455;SDS011;63021;52.836;6.376;2023-02-15T01:55:02;28.50;;;17.45;;
55455;SDS011;63021;52.836;6.376;2023-02-15T01:57:28;31.65;;;17.13;;
55455;SDS011;63021;52.836;6.376;2023-02-15T01:59:55;29.90;;;18.02;;
55455;SDS011;63021;52.836;6.376;2023-02-15T02:02:23;29.20;;;17.73;;
55455;SDS011;63021;52.836;6.376;2023-02-15T02:04:53;28.00;;;17.38;;
55455;SDS011;63021;52.836;6.376;2023-02-15T02:07:26;32.75;;;19.10;;
55455;SDS011;63021;52.836;6.376;2023-02-15T02:09:54;32.83;;;18.30;;
55455;SDS011;63021;52.836;6.376;2023-02-15T02:12:20;33.60;;;18.00;;
55455;SDS011;63021;52.836;6.376;2023-02-15T02:14:47;31.50;;;19.02;;
55455;SDS011;63021;52.836;6.376;2023-02-15T02:20:22;31.42;;;16.33;;
55455;SDS011;63021;52.836;6.376;2023-02-15T02:46:02;27.95;;;17.80;;
55455;SDS011;63021;52.836;6.376;2023-02-15T02:48:46;29.88;;;17.98;;
55455;SDS011;63021;52.836;6.376;2023-02-15T02:51:14;27.85;;;17.02;;
55455;SDS011;63021;52.836;6.376;2023-02-15T02:53:46;27.38;;;18.63;;
55455;SDS011;63021;52.836;6.376;2023-02-15T02:56:20;28.63;;;19.08;;
55455;SDS011;63021;52.836;6.376;2023-02-15T02:58:55;30.35;;;18.70;;
55455;SDS011;63021;52.836;6.376;2023-02-15T03:11:51;24.90;;;17.00;;
55455;SDS011;63021;52.836;6.376;2023-02-15T03:14:16;26.02;;;17.65;;
55455;SDS011;63021;52.836;6.376;2023-02-15T03:16:44;29.27;;;18.40;;
55455;SDS011;63021;52.836;6.376;2023-02-15T03:24:14;32.03;;;19.85;;
55455;SDS011;63021;52.836;6.376;2023-02-15T03:26:46;34.25;;;20.45;;
55455;SDS011;63021;52.836;6.376;2023-02-15T03:29:15;32.30;;;22.35;;
55455;SDS011;63021;52.836;6.376;2023-02-15T03:31:45;29.63;;;20.02;;
55455;SDS011;63021;52.836;6.376;2023-02-15T03:34:15;29.85;;;21.52;;
55455;SDS011;63021;52.836;6.376;2023-02-15T03:42:01;40.88;;;24.02;;
55455;SDS011;63021;52.836;6.376;2023-02-15T03:44:46;42.70;;;24.10;;
55455;SDS011;63021;52.836;6.376;2023-02-15T03:47:23;47.30;;;25.23;;
55455;SDS011;63021;52.836;6.376;2023-02-15T03:49:55;46.42;;;25.35;;
55455;SDS011;63021;52.836;6.376;2023-02-15T03:52:27;42.17;;;23.65;;
55455;SDS011;63021;52.836;6.376;2023-02-15T03:54:53;37.85;;;22.95;;
55455;SDS011;63021;52.836;6.376;2023-02-15T03:57:23;37.53;;;21.23;;
55455;SDS011;63021;52.836;6.376;2023-02-15T04:05:44;32.17;;;19.90;;
55455;SDS011;63021;52.836;6.376;2023-02-15T04:08:10;35.47;;;19.23;;
55455;SDS011;63021;52.836;6.376;2023-02-15T04:10:36;32.78;;;17.98;;
55455;SDS011;63021;52.836;6.376;2023-02-15T04:13:29;33.42;;;19.45;;
55455;SDS011;63021;52.836;6.376;2023-02-15T04:15:56;30.15;;;18.60;;
55455;SDS011;63021;52.836;6.376;2023-02-15T04:18:32;31.73;;;19.33;;
55455;SDS011;63021;52.836;6.376;2023-02-15T04:21:24;30.85;;;20.02;;
55455;SDS011;63021;52.836;6.376;2023-02-15T04:24:10;30.85;;;20.10;;
55455;SDS011;63021;52.836;6.376;2023-02-15T04:29:21;25.70;;;18.23;;
55455;SDS011;63021;52.836;6.376;2023-02-15T04:31:47;26.88;;;17.95;;
55455;SDS011;63021;52.836;6.376;2023-02-15T04:34:13;28.50;;;19.55;;
55455;SDS011;63021;52.836;6.376;2023-02-15T04:36:39;34.60;;;20.83;;
55455;SDS011;63021;52.836;6.376;2023-02-15T04:39:06;34.75;;;21.35;;
55455;SDS011;63021;52.836;6.376;2023-02-15T04:41:32;33.97;;;20.80;;
55455;SDS011;63021;52.836;6.376;2023-02-15T04:43:57;38.55;;;20.52;;
55455;SDS011;63021;52.836;6.376;2023-02-15T04:46:24;32.35;;;20.60;;
55455;SDS011;63021;52.836;6.376;2023-02-15T04:48:50;37.95;;;21.58;;
55455;SDS011;63021;52.836;6.376;2023-02-15T04:51:15;45.00;;;24.63;;
55455;SDS011;63021;52.836;6.376;2023-02-15T04:53:41;42.58;;;23.48;;
55455;SDS011;63021;52.836;6.376;2023-02-15T04:56:06;39.53;;;23.00;;
55455;SDS011;63021;52.836;6.376;2023-02-15T04:58:32;46.42;;;25.33;;
55455;SDS011;63021;52.836;6.376;2023-02-15T05:00:57;41.15;;;23.08;;
55455;SDS011;63021;52.836;6.376;2023-02-15T05:03:23;44.17;;;22.48;;
55455;SDS011;63021;52.836;6.376;2023-02-15T05:05:49;37.90;;;22.83;;
55455;SDS011;63021;52.836;6.376;2023-02-15T05:08:15;49.78;;;25.98;;
55455;SDS011;63021;52.836;6.376;2023-02-15T05:10:41;44.85;;;26.70;;
55455;SDS011;63021;52.836;6.376;2023-02-15T05:13:07;51.08;;;25.20;;
55455;SDS011;63021;52.836;6.376;2023-02-15T05:15:32;38.83;;;25.40;;
55455;SDS011;63021;52.836;6.376;2023-02-15T05:17:57;45.85;;;24.77;;
55455;SDS011;63021;52.836;6.376;2023-02-15T05:20:23;45.10;;;25.02;;
55455;SDS011;63021;52.836;6.376;2023-02-15T05:22:48;45.05;;;25.30;;
55455;SDS011;63021;52.836;6.376;2023-02-15T05:25:13;43.42;;;23.80;;
55455;SDS011;63021;52.836;6.376;2023-02-15T05:27:57;44.67;;;25.35;;
55455;SDS011;63021;52.836;6.376;2023-02-15T05:30:42;42.40;;;25.17;;
55455;SDS011;63021;52.836;6.376;2023-02-15T05:33:08;48.78;;;25.85;;
55455;SDS011;63021;52.836;6.376;2023-02-15T05:35:34;43.78;;;24.92;;
55455;SDS011;63021;52.836;6.376;2023-02-15T05:38:00;49.85;;;28.58;;
55455;SDS011;63021;52.836;6.376;2023-02-15T05:40:25;50.83;;;28.13;;
55455;SDS011;63021;52.836;6.376;2023-02-15T05:42:52;48.03;;;28.42;;
55455;SDS011;63021;52.836;6.376;2023-02-15T05:45:17;50.63;;;26.23;;
55455;SDS011;63021;52.836;6.376;2023-02-15T05:47:43;47.38;;;25.88;;
55455;SDS011;63021;52.836;6.376;2023-02-15T05:50:09;41.78;;;24.67;;
55455;SDS011;63021;52.836;6.376;2023-02-15T05:52:36;37.38;;;23.23;;
55455;SDS011;63021;52.836;6.376;2023-02-15T05:55:02;38.28;;;24.33;;
55455;SDS011;63021;52.836;6.376;2023-02-15T05:57:29;36.28;;;23.58;;
55455;SDS011;63021;52.836;6.376;2023-02-15T05:59:54;33.30;;;21.35;;
55455;SDS011;63021;52.836;6.376;2023-02-15T06:02:20;35.10;;;23.42;;
55455;SDS011;63021;52.836;6.376;2023-02-15T06:04:45;32.97;;;22.50;;
55455;SDS011;63021;52.836;6.376;2023-02-15T06:07:10;38.38;;;23.25;;
55455;SDS011;63021;52.836;6.376;2023-02-15T06:09:36;34.60;;;23.85;;
55455;SDS011;63021;52.836;6.376;2023-02-15T06:12:01;36.40;;;22.45;;
55455;SDS011;63021;52.836;6.376;2023-02-15T06:14:27;32.72;;;23.00;;
55455;SDS011;63021;52.836;6.376;2023-02-15T06:16:52;39.20;;;24.67;;
55455;SDS011;63021;52.836;6.376;2023-02-15T06:19:17;46.92;;;23.73;;
55455;SDS011;63021;52.836;6.376;2023-02-15T06:21:43;33.72;;;23.38;;
55455;SDS011;63021;52.836;6.376;2023-02-15T06:24:09;41.08;;;24.90;;
55455;SDS011;63021;52.836;6.376;2023-02-15T06:26:34;36.85;;;23.73;;
55455;SDS011;63021;52.836;6.376;2023-02-15T06:29:00;40.47;;;23.75;;
55455;SDS011;63021;52.836;6.376;2023-02-15T06:31:25;43.00;;;24.60;;
55455;SDS011;63021;52.836;6.376;2023-02-15T06:33:51;33.63;;;21.70;;
55455;SDS011;63021;52.836;6.376;2023-02-15T06:38:44;36.22;;;23.67;;
55455;SDS011;63021;52.836;6.376;2023-02-15T06:41:10;41.58;;;23.52;;
55455;SDS011;63021;52.836;6.376;2023-02-15T06:43:35;34.97;;;23.35;;
55455;SDS011;63021;52.836;6.376;2023-02-15T06:46:00;36.10;;;23.23;;
55455;SDS011;63021;52.836;6.376;2023-02-15T06:48:27;38.53;;;22.02;;
55455;SDS011;63021;52.836;6.376;2023-02-15T06:50:52;36.13;;;23.40;;
55455;SDS011;63021;52.836;6.376;2023-02-15T06:53:18;37.25;;;22.10;;
55455;SDS011;63021;52.836;6.376;2023-02-15T06:55:43;35.25;;;22.88;;
55455;SDS011;63021;52.836;6.376;2023-02-15T06:58:09;36.42;;;22.17;;
55455;SDS011;63021;52.836;6.376;2023-02-15T07:00:34;37.05;;;24.27;;
55455;SDS011;63021;52.836;6.376;2023-02-15T07:03:00;38.80;;;21.98;;
55455;SDS011;63021;52.836;6.376;2023-02-15T07:05:27;37.45;;;23.52;;
55455;SDS011;63021;52.836;6.376;2023-02-15T07:07:56;35.15;;;23.13;;
55455;SDS011;63021;52.836;6.376;2023-02-15T07:10:22;35.10;;;23.98;;
55455;SDS011;63021;52.836;6.376;2023-02-15T07:12:47;40.28;;;23.98;;
55455;SDS011;63021;52.836;6.376;2023-02-15T07:15:17;38.75;;;24.33;;
55455;SDS011;63021;52.836;6.376;2023-02-15T07:17:45;38.60;;;23.05;;
55455;SDS011;63021;52.836;6.376;2023-02-15T07:20:21;36.22;;;23.10;;
55455;SDS011;63021;52.836;6.376;2023-02-15T07:22:48;40.47;;;22.42;;
55455;SDS011;63021;52.836;6.376;2023-02-15T07:25:15;34.10;;;23.13;;
55455;SDS011;63021;52.836;6.376;2023-02-15T07:27:41;37.72;;;23.70;;
55455;SDS011;63021;52.836;6.376;2023-02-15T07:30:07;41.25;;;23.42;;
55455;SDS011;63021;52.836;6.376;2023-02-15T07:32:35;41.25;;;21.52;;
55455;SDS011;63021;52.836;6.376;2023-02-15T07:35:00;38.75;;;24.10;;
55455;SDS011;63021;52.836;6.376;2023-02-15T07:37:28;39.67;;;23.33;;
55455;SDS011;63021;52.836;6.376;2023-02-15T07:39:53;38.38;;;23.85;;
55455;SDS011;63021;52.836;6.376;2023-02-15T07:42:20;39.47;;;23.52;;
55455;SDS011;63021;52.836;6.376;2023-02-15T07:44:46;36.03;;;23.15;;
55455;SDS011;63021;52.836;6.376;2023-02-15T07:47:12;38.60;;;22.55;;
55455;SDS011;63021;52.836;6.376;2023-02-15T07:49:38;33.78;;;23.20;;
55455;SDS011;63021;52.836;6.376;2023-02-15T07:52:03;40.42;;;24.20;;
55455;SDS011;63021;52.836;6.376;2023-02-15T07:54:29;38.30;;;24.60;;
55455;SDS011;63021;52.836;6.376;2023-02-15T07:56:54;45.88;;;25.70;;
55455;SDS011;63021;52.836;6.376;2023-02-15T07:59:20;46.53;;;28.35;;
55455;SDS011;63021;52.836;6.376;2023-02-15T08:01:45;40.38;;;25.63;;
55455;SDS011;63021;52.836;6.376;2023-02-15T08:04:10;45.22;;;27.60;;
55455;SDS011;63021;52.836;6.376;2023-02-15T08:06:36;38.30;;;25.15;;
55455;SDS011;63021;52.836;6.376;2023-02-15T08:09:04;44.10;;;27.27;;
55455;SDS011;63021;52.836;6.376;2023-02-15T08:11:32;47.20;;;26.67;;
55455;SDS011;63021;52.836;6.376;2023-02-15T08:16:47;44.65;;;28.60;;
55455;SDS011;63021;52.836;6.376;2023-02-15T08:19:29;45.90;;;27.92;;
55455;SDS011;63021;52.836;6.376;2023-02-15T08:22:06;43.03;;;27.10;;
55455;SDS011;63021;52.836;6.376;2023-02-15T08:24:33;49.65;;;30.67;;
55455;SDS011;63021;52.836;6.376;2023-02-15T08:27:01;43.13;;;31.52;;
55455;SDS011;63021;52.836;6.376;2023-02-15T08:29:28;53.65;;;33.03;;
55455;SDS011;63021;52.836;6.376;2023-02-15T08:31:56;50.78;;;32.22;;
55455;SDS011;63021;52.836;6.376;2023-02-15T08:34:30;45.55;;;27.48;;
55455;SDS011;63021;52.836;6.376;2023-02-15T08:36:57;44.28;;;25.88;;
55455;SDS011;63021;52.836;6.376;2023-02-15T08:39:22;40.53;;;26.05;;
55455;SDS011;63021;52.836;6.376;2023-02-15T08:41:49;45.90;;;28.48;;
55455;SDS011;63021;52.836;6.376;2023-02-15T08:44:15;50.63;;;31.35;;
55455;SDS011;63021;52.836;6.376;2023-02-15T08:46:43;48.95;;;29.95;;
55455;SDS011;63021;52.836;6.376;2023-02-15T08:49:15;50.53;;;28.25;;
55455;SDS011;63021;52.836;6.376;2023-02-15T08:51:42;46.65;;;30.65;;
55455;SDS011;63021;52.836;6.376;2023-02-15T08:54:09;53.05;;;33.58;;
55455;SDS011;63021;52.836;6.376;2023-02-15T08:56:38;49.40;;;31.02;;
55455;SDS011;63021;52.836;6.376;2023-02-15T08:59:06;47.35;;;31.73;;
55455;SDS011;63021;52.836;6.376;2023-02-15T09:01:35;49.72;;;31.92;;
55455;SDS011;63021;52.836;6.376;2023-02-15T09:04:02;51.15;;;33.22;;
55455;SDS011;63021;52.836;6.376;2023-02-15T09:06:33;46.20;;;31.13;;
55455;SDS011;63021;52.836;6.376;2023-02-15T09:08:58;51.17;;;29.70;;
55455;SDS011;63021;52.836;6.376;2023-02-15T09:11:25;51.00;;;29.67;;
55455;SDS011;63021;52.836;6.376;2023-02-15T09:14:05;45.00;;;26.77;;
55455;SDS011;63021;52.836;6.376;2023-02-15T09:16:34;45.50;;;26.42;;
55455;SDS011;63021;52.836;6.376;2023-02-15T09:19:02;45.05;;;28.27;;
55455;SDS011;63021;52.836;6.376;2023-02-15T09:21:29;47.22;;;28.25;;
55455;SDS011;63021;52.836;6.376;2023-02-15T09:24:06;49.25;;;28.92;;
55455;SDS011;63021;52.836;6.376;2023-02-15T09:26:34;46.85;;;27.98;;
55455;SDS011;63021;52.836;6.376;2023-02-15T09:29:01;48.88;;;28.88;;
55455;SDS011;63021;52.836;6.376;2023-02-15T09:31:32;46.28;;;26.98;;
55455;SDS011;63021;52.836;6.376;2023-02-15T09:34:02;45.70;;;28.75;;
55455;SDS011;63021;52.836;6.376;2023-02-15T09:36:29;56.70;;;31.52;;
55455;SDS011;63021;52.836;6.376;2023-02-15T09:38:57;50.42;;;29.80;;
55455;SDS011;63021;52.836;6.376;2023-02-15T10:06:27;57.38;;;34.10;;
55455;SDS011;63021;52.836;6.376;2023-02-15T10:19:42;54.55;;;33.03;;
55455;SDS011;63021;52.836;6.376;2023-02-15T10:28:05;59.42;;;33.88;;
55455;SDS011;63021;52.836;6.376;2023-02-15T10:33:03;62.22;;;33.60;;
55455;SDS011;63021;52.836;6.376;2023-02-15T10:51:57;58.33;;;35.00;;
55455;SDS011;63021;52.836;6.376;2023-02-15T10:54:45;62.47;;;34.63;;
55455;SDS011;63021;52.836;6.376;2023-02-15T10:57:34;55.03;;;33.15;;
55455;SDS011;63021;52.836;6.376;2023-02-15T11:03:04;55.75;;;33.47;;
55455;SDS011;63021;52.836;6.376;2023-02-15T11:08:22;58.10;;;35.17;;
55455;SDS011;63021;52.836;6.376;2023-02-15T11:10:53;59.67;;;34.50;;
55455;SDS011;63021;52.836;6.376;2023-02-15T11:13:24;60.42;;;35.63;;
55455;SDS011;63021;52.836;6.376;2023-02-15T11:15:57;49.40;;;33.17;;
55455;SDS011;63021;52.836;6.376;2023-02-15T11:20:58;57.40;;;33.40;;
55455;SDS011;63021;52.836;6.376;2023-02-15T11:23:28;62.72;;;33.85;;
55455;SDS011;63021;52.836;6.376;2023-02-15T11:26:00;56.85;;;34.50;;
55455;SDS011;63021;52.836;6.376;2023-02-15T11:28:40;62.40;;;34.28;;
55455;SDS011;63021;52.836;6.376;2023-02-15T11:31:15;58.85;;;34.13;;
55455;SDS011;63021;52.836;6.376;2023-02-15T11:33:44;62.10;;;34.15;;
55455;SDS011;63021;52.836;6.376;2023-02-15T11:36:28;58.17;;;32.88;;
55455;SDS011;63021;52.836;6.376;2023-02-15T11:39:01;51.10;;;33.28;;
55455;SDS011;63021;52.836;6.376;2023-02-15T11:41:34;57.00;;;33.22;;
55455;SDS011;63021;52.836;6.376;2023-02-15T11:44:10;56.60;;;31.88;;
55455;SDS011;63021;52.836;6.376;2023-02-15T11:46:46;53.67;;;31.77;;
55455;SDS011;63021;52.836;6.376;2023-02-15T11:49:21;51.17;;;33.00;;
55455;SDS011;63021;52.836;6.376;2023-02-15T11:51:55;48.60;;;31.50;;
55455;SDS011;63021;52.836;6.376;2023-02-15T11:54:26;54.08;;;32.53;;
55455;SDS011;63021;52.836;6.376;2023-02-15T11:56:56;53.90;;;29.73;;
55455;SDS011;63021;52.836;6.376;2023-02-15T11:59:50;55.40;;;29.90;;
55455;SDS011;63021;52.836;6.376;2023-02-15T12:02:21;51.45;;;29.20;;
55455;SDS011;63021;52.836;6.376;2023-02-15T12:04:49;51.75;;;29.77;;
55455;SDS011;63021;52.836;6.376;2023-02-15T12:10:17;50.03;;;29.77;;
55455;SDS011;63021;52.836;6.376;2023-02-15T12:12:49;50.70;;;27.45;;
55455;SDS011;63021;52.836;6.376;2023-02-15T12:15:33;47.58;;;28.42;;
55455;SDS011;63021;52.836;6.376;2023-02-15T12:18:00;47.97;;;29.98;;
55455;SDS011;63021;52.836;6.376;2023-02-15T12:20:32;48.55;;;28.90;;
55455;SDS011;63021;52.836;6.376;2023-02-15T12:23:03;48.15;;;29.35;;
55455;SDS011;63021;52.836;6.376;2023-02-15T12:25:52;51.20;;;30.02;;
55455;SDS011;63021;52.836;6.376;2023-02-15T12:28:34;50.53;;;29.42;;
55455;SDS011;63021;52.836;6.376;2023-02-15T12:31:03;48.33;;;27.75;;
55455;SDS011;63021;52.836;6.376;2023-02-15T12:33:35;49.80;;;29.25;;
55455;SDS011;63021;52.836;6.376;2023-02-15T12:36:20;47.17;;;28.65;;
55455;SDS011;63021;52.836;6.376;2023-02-15T12:41:37;50.15;;;27.50;;
55455;SDS011;63021;52.836;6.376;2023-02-15T12:44:17;47.35;;;28.08;;
55455;SDS011;63021;52.836;6.376;2023-02-15T12:47:03;46.22;;;27.48;;
55455;SDS011;63021;52.836;6.376;2023-02-15T12:54:46;46.30;;;26.95;;
55455;SDS011;63021;52.836;6.376;2023-02-15T12:57:26;52.28;;;29.70;;
55455;SDS011;63021;52.836;6.376;2023-02-15T12:59:59;46.20;;;27.75;;
55455;SDS011;63021;52.836;6.376;2023-02-15T13:02:29;49.53;;;28.25;;
55455;SDS011;63021;52.836;6.376;2023-02-15T13:05:07;50.58;;;27.58;;
55455;SDS011;63021;52.836;6.376;2023-02-15T13:07:44;43.58;;;26.33;;
55455;SDS011;63021;52.836;6.376;2023-02-15T13:10:21;43.97;;;24.83;;
55455;SDS011;63021;52.836;6.376;2023-02-15T13:12:50;42.42;;;25.55;;
55455;SDS011;63021;52.836;6.376;2023-02-15T13:15:26;47.70;;;26.70;;
55455;SDS011;63021;52.836;6.376;2023-02-15T13:18:00;41.17;;;24.30;;
55455;SDS011;63021;52.836;6.376;2023-02-15T13:20:27;42.63;;;24.95;;
55455;SDS011;63021;52.836;6.376;2023-02-15T13:22:58;42.22;;;26.60;;
55455;SDS011;63021;52.836;6.376;2023-02-15T13:25:30;43.40;;;26.17;;
55455;SDS011;63021;52.836;6.376;2023-02-15T13:28:03;41.22;;;25.38;;
55455;SDS011;63021;52.836;6.376;2023-02-15T13:30:31;41.40;;;25.83;;
55455;SDS011;63021;52.836;6.376;2023-02-15T13:33:03;47.03;;;26.40;;
55455;SDS011;63021;52.836;6.376;2023-02-15T13:35:45;43.13;;;25.20;;
55455;SDS011;63021;52.836;6.376;2023-02-15T13:41:26;43.05;;;25.65;;
55455;SDS011;63021;52.836;6.376;2023-02-15T13:52:20;39.72;;;22.90;;
55455;SDS011;63021;52.836;6.376;2023-02-15T14:16:28;36.57;;;24.57;;
55455;SDS011;63021;52.836;6.376;2023-02-15T14:21:47;42.55;;;25.63;;
55455;SDS011;63021;52.836;6.376;2023-02-15T14:30:03;47.70;;;24.55;;
55455;SDS011;63021;52.836;6.376;2023-02-15T14:32:53;38.65;;;24.48;;
55455;SDS011;63021;52.836;6.376;2023-02-15T14:35:24;42.35;;;24.30;;
55455;SDS011;63021;52.836;6.376;2023-02-15T14:37:55;41.40;;;24.75;;
55455;SDS011;63021;52.836;6.376;2023-02-15T14:40:30;39.53;;;23.25;;
55455;SDS011;63021;52.836;6.376;2023-02-15T14:46:30;41.70;;;24.40;;
55455;SDS011;63021;52.836;6.376;2023-02-15T14:49:08;43.28;;;24.92;;
55455;SDS011;63021;52.836;6.376;2023-02-15T14:52:00;41.65;;;24.88;;
55455;SDS011;63021;52.836;6.376;2023-02-15T15:07:23;37.03;;;23.15;;
55455;SDS011;63021;52.836;6.376;2023-02-15T15:12:40;35.17;;;22.95;;
55455;SDS011;63021;52.836;6.376;2023-02-15T15:15:52;48.72;;;25.77;;
55455;SDS011;63021;52.836;6.376;2023-02-15T15:18:43;39.47;;;22.67;;
55455;SDS011;63021;52.836;6.376;2023-02-15T15:30:26;42.72;;;24.00;;
55455;SDS011;63021;52.836;6.376;2023-02-15T15:38:22;40.15;;;24.45;;
55455;SDS011;63021;52.836;6.376;2023-02-15T15:41:13;47.63;;;25.30;;
55455;SDS011;63021;52.836;6.376;2023-02-15T15:49:12;47.72;;;27.20;;
55455;SDS011;63021;52.836;6.376;2023-02-15T15:51:41;44.55;;;26.73;;
55455;SDS011;63021;52.836;6.376;2023-02-15T15:54:26;48.65;;;26.33;;
55455;SDS011;63021;52.836;6.376;2023-02-15T15:56:59;44.95;;;24.38;;
55455;SDS011;63021;52.836;6.376;2023-02-15T15:59:28;40.97;;;24.02;;
55455;SDS011;63021;52.836;6.376;2023-02-15T16:01:56;40.67;;;23.88;;
55455;SDS011;63021;52.836;6.376;2023-02-15T16:04:30;42.70;;;25.10;;
55455;SDS011;63021;52.836;6.376;2023-02-15T16:06:58;40.05;;;24.02;;
55455;SDS011;63021;52.836;6.376;2023-02-15T16:09:40;42.53;;;23.48;;
55455;SDS011;63021;52.836;6.376;2023-02-15T16:12:13;47.88;;;27.10;;
55455;SDS011;63021;52.836;6.376;2023-02-15T16:14:42;43.85;;;24.90;;
55455;SDS011;63021;52.836;6.376;2023-02-15T16:17:17;40.55;;;25.58;;
55455;SDS011;63021;52.836;6.376;2023-02-15T16:19:47;42.35;;;23.92;;
55455;SDS011;63021;52.836;6.376;2023-02-15T16:22:14;41.63;;;25.00;;
55455;SDS011;63021;52.836;6.376;2023-02-15T16:27:47;41.72;;;23.58;;
55455;SDS011;63021;52.836;6.376;2023-02-15T16:32:45;42.60;;;24.00;;
55455;SDS011;63021;52.836;6.376;2023-02-15T16:35:14;45.15;;;25.73;;
55455;SDS011;63021;52.836;6.376;2023-02-15T16:37:44;40.70;;;24.38;;
55455;SDS011;63021;52.836;6.376;2023-02-15T16:40:25;39.35;;;23.58;;
55455;SDS011;63021;52.836;6.376;2023-02-15T16:43:03;39.65;;;24.10;;
55455;SDS011;63021;52.836;6.376;2023-02-15T16:45:32;41.10;;;24.67;;
55455;SDS011;63021;52.836;6.376;2023-02-15T16:47:59;39.92;;;24.08;;
55455;SDS011;63021;52.836;6.376;2023-02-15T16:50:34;43.95;;;26.02;;
55455;SDS011;63021;52.836;6.376;2023-02-15T16:53:02;43.67;;;24.05;;
55455;SDS011;63021;52.836;6.376;2023-02-15T16:55:33;43.35;;;26.35;;
55455;SDS011;63021;52.836;6.376;2023-02-15T16:58:04;42.70;;;25.33;;
55455;SDS011;63021;52.836;6.376;2023-02-15T17:00:36;45.53;;;25.73;;
55455;SDS011;63021;52.836;6.376;2023-02-15T17:05:44;44.72;;;24.55;;
55455;SDS011;63021;52.836;6.376;2023-02-15T17:08:44;48.88;;;26.25;;
55455;SDS011;63021;52.836;6.376;2023-02-15T17:11:22;40.10;;;25.08;;
55455;SDS011;63021;52.836;6.376;2023-02-15T17:16:45;43.47;;;25.42;;
55455;SDS011;63021;52.836;6.376;2023-02-15T17:21:43;43.50;;;26.90;;
55455;SDS011;63021;52.836;6.376;2023-02-15T17:24:25;41.22;;;25.08;;
55455;SDS011;63021;52.836;6.376;2023-02-15T17:27:05;45.70;;;26.73;;
55455;SDS011;63021;52.836;6.376;2023-02-15T17:29:44;48.25;;;27.05;;
55455;SDS011;63021;52.836;6.376;2023-02-15T17:32:23;52.58;;;28.80;;
55455;SDS011;63021;52.836;6.376;2023-02-15T17:40:07;39.95;;;24.67;;
55455;SDS011;63021;52.836;6.376;2023-02-15T17:42:42;51.20;;;27.83;;
55455;SDS011;63021;52.836;6.376;2023-02-15T17:45:09;45.75;;;26.67;;
55455;SDS011;63021;52.836;6.376;2023-02-15T17:47:34;42.92;;;24.90;;
55455;SDS011;63021;52.836;6.376;2023-02-15T17:50:01;43.42;;;25.25;;
55455;SDS011;63021;52.836;6.376;2023-02-15T17:52:32;44.67;;;26.92;;
55455;SDS011;63021;52.836;6.376;2023-02-15T17:54:58;50.50;;;28.40;;
55455;SDS011;63021;52.836;6.376;2023-02-15T17:57:50;50.08;;;28.50;;
55455;SDS011;63021;52.836;6.376;2023-02-15T18:00:15;50.85;;;27.98;;
55455;SDS011;63021;52.836;6.376;2023-02-15T18:02:59;52.15;;;28.48;;
55455;SDS011;63021;52.836;6.376;2023-02-15T18:05:43;52.15;;;29.30;;
55455;SDS011;63021;52.836;6.376;2023-02-15T18:08:28;52.28;;;28.88;;
55455;SDS011;63021;52.836;6.376;2023-02-15T18:11:12;51.53;;;30.23;;
55455;SDS011;63021;52.836;6.376;2023-02-15T18:13:56;52.78;;;28.20;;
55455;SDS011;63021;52.836;6.376;2023-02-15T18:16:25;55.35;;;29.05;;
55455;SDS011;63021;52.836;6.376;2023-02-15T18:18:54;46.40;;;27.75;;
55455;SDS011;63021;52.836;6.376;2023-02-15T18:21:21;53.45;;;26.10;;
55455;SDS011;63021;52.836;6.376;2023-02-15T18:23:47;47.88;;;27.95;;
55455;SDS011;63021;52.836;6.376;2023-02-15T18:26:16;43.75;;;25.80;;
55455;SDS011;63021;52.836;6.376;2023-02-15T18:28:44;55.10;;;28.80;;
55455;SDS011;63021;52.836;6.376;2023-02-15T18:31:10;52.42;;;28.63;;
55455;SDS011;63021;52.836;6.376;2023-02-15T18:33:41;51.78;;;30.23;;
55455;SDS011;63021;52.836;6.376;2023-02-15T18:36:20;58.60;;;31.88;;
55455;SDS011;63021;52.836;6.376;2023-02-15T18:39:12;47.47;;;29.90;;
55455;SDS011;63021;52.836;6.376;2023-02-15T18:41:51;53.05;;;31.48;;
55455;SDS011;63021;52.836;6.376;2023-02-15T18:44:17;53.35;;;31.40;;